createdAt,value
2023-04-12T00:00:13.495Z,9.25
2023-04-12T00:02:42.516Z,9.20
2023-04-12T00:05:11.819Z,9.25
2023-04-12T00:07:40.208Z,9.23
2023-04-12T00:10:09.499Z,9.24
2023-04-12T00:12:40.499Z,9.25
2023-04-12T00:15:09.842Z,9.30
2023-04-12T00:17:37.853Z,9.32
2023-04-12T00:20:07.560Z,9.19
2023-04-12T00:22:37.058Z,9.28
2023-04-12T00:25:06.923Z,9.04
2023-04-12T00:27:34.988Z,9.33
2023-04-12T00:30:04.788Z,9.37
2023-04-12T00:32:32.757Z,9.36
2023-04-12T00:35:00.835Z,9.38
2023-04-12T00:37:28.869Z,9.37
2023-04-12T00:39:56.832Z,9.38
2023-04-12T00:42:24.805Z,9.40
2023-04-12T00:44:52.726Z,9.37
2023-04-12T00:47:22.246Z,9.19
2023-04-12T00:49:50.258Z,9.37
2023-04-12T00:52:18.563Z,9.30
2023-04-12T00:54:47.030Z,9.26
2023-04-12T00:57:15.132Z,9.23
2023-04-12T00:59:43.082Z,9.16
2023-04-12T01:02:11.259Z,9.18
2023-04-12T01:04:43.700Z,9.09
2023-04-12T01:07:20.618Z,9.06
2023-04-12T01:10:00.517Z,9.03
2023-04-12T01:12:42.263Z,8.99
2023-04-12T01:15:13.750Z,8.93
2023-04-12T01:17:48.830Z,8.96
2023-04-12T01:20:21.756Z,8.96
2023-04-12T01:23:21.303Z,8.93
2023-04-12T01:26:08.314Z,8.91
2023-04-12T01:28:42.474Z,8.85
2023-04-12T01:31:13.315Z,8.90
2023-04-12T01:33:44.529Z,8.90
2023-04-12T01:36:15.177Z,8.83
2023-04-12T01:38:43.841Z,8.85
2023-04-12T01:41:11.965Z,8.85
2023-04-12T01:43:44.807Z,8.58
2023-04-12T01:46:17.013Z,8.86
2023-04-12T01:48:50.452Z,8.86
2023-04-12T01:51:32.481Z,8.83
2023-04-12T01:54:04.331Z,8.76
2023-04-12T01:56:39.496Z,8.82
2023-04-12T01:59:12.129Z,8.56
2023-04-12T02:01:48.489Z,8.87
2023-04-12T02:04:33.784Z,8.85
2023-04-12T02:07:02.015Z,8.91
2023-04-12T02:09:30.015Z,8.89
2023-04-12T02:11:57.972Z,8.91
2023-04-12T02:14:27.925Z,8.90
2023-04-12T02:16:56.347Z,8.85
2023-04-12T02:19:24.742Z,8.70
2023-04-12T02:21:52.930Z,8.79
2023-04-12T02:24:20.895Z,8.77
2023-04-12T02:26:50.094Z,8.74
2023-04-12T02:29:18.520Z,8.85
2023-04-12T02:31:48.425Z,8.82
2023-04-12T02:34:18.200Z,8.76
2023-04-12T02:36:48.469Z,8.82
2023-04-12T02:39:18.979Z,8.82
2023-04-12T02:41:47.179Z,8.85
2023-04-12T02:44:15.130Z,8.81
2023-04-12T02:46:43.117Z,8.75
2023-04-12T02:49:12.562Z,8.77
2023-04-12T02:51:40.861Z,8.80
2023-04-12T02:54:08.761Z,8.73
2023-04-12T02:56:37.074Z,8.68
2023-04-12T02:59:05.017Z,8.65
2023-04-12T03:01:33.796Z,8.56
2023-04-12T03:04:02.243Z,8.39
2023-04-12T03:06:32.159Z,8.62
2023-04-12T03:09:00.508Z,8.70
2023-04-12T03:11:28.488Z,8.66
2023-04-12T03:13:56.629Z,7.80
2023-04-12T03:16:30.143Z,8.76
2023-04-12T03:18:58.762Z,8.87
2023-04-12T03:21:28.384Z,8.85
2023-04-12T03:23:58.080Z,8.87
2023-04-12T03:26:26.677Z,8.82
2023-04-12T03:29:00.751Z,8.89
2023-04-12T03:31:29.235Z,8.72
2023-04-12T03:33:57.580Z,8.72
2023-04-12T03:36:27.163Z,8.91
2023-04-12T03:38:55.578Z,8.87
2023-04-12T03:41:24.987Z,8.98
2023-04-12T03:43:52.936Z,9.02
2023-04-12T03:46:21.370Z,9.04
2023-04-12T03:48:50.870Z,9.01
2023-04-12T03:51:22.296Z,8.26
2023-04-12T03:53:50.302Z,9.10
2023-04-12T03:56:20.143Z,9.03
2023-04-12T03:58:49.608Z,9.11
2023-04-12T04:01:18.015Z,9.13
2023-04-12T04:03:46.672Z,8.92
2023-04-12T04:06:15.153Z,9.10
2023-04-12T04:08:44.721Z,9.11
2023-04-12T04:11:14.253Z,8.78
2023-04-12T04:13:42.425Z,9.10
2023-04-12T04:16:12.057Z,9.07
2023-04-12T04:18:40.198Z,8.87
2023-04-12T04:21:08.992Z,9.09
2023-04-12T04:23:39.177Z,9.09
2023-04-12T04:26:10.576Z,9.08
2023-04-12T04:28:39.563Z,9.11
2023-04-12T04:31:10.701Z,9.17
2023-04-12T04:33:41.834Z,9.18
2023-04-12T04:36:13.436Z,9.16
2023-04-12T04:38:42.127Z,9.17
2023-04-12T04:41:10.534Z,9.13
2023-04-12T04:43:40.234Z,9.11
2023-04-12T04:46:08.533Z,8.87
2023-04-12T04:48:36.665Z,8.98
2023-04-12T04:51:06.282Z,9.04
2023-04-12T04:53:34.730Z,9.04
2023-04-12T04:56:02.757Z,9.05
2023-04-12T04:58:30.766Z,9.15
2023-04-12T05:00:59.883Z,9.14
2023-04-12T05:03:30.836Z,9.24
2023-04-12T05:05:59.108Z,9.19
2023-04-12T05:08:29.773Z,9.25
2023-04-12T05:10:58.248Z,9.18
2023-04-12T05:13:26.276Z,9.24
2023-04-12T05:15:54.306Z,9.16
2023-04-12T05:18:22.237Z,9.18
2023-04-12T05:20:50.584Z,9.14
2023-04-12T05:23:20.840Z,9.18
2023-04-12T05:25:50.432Z,9.22
2023-04-12T05:28:18.581Z,9.27
2023-04-12T05:30:47.921Z,9.36
2023-04-12T05:33:16.160Z,9.05
2023-04-12T05:35:44.237Z,9.39
2023-04-12T05:38:12.214Z,9.39
2023-04-12T05:40:40.108Z,9.39
2023-04-12T05:43:12.575Z,9.39
2023-04-12T05:45:41.937Z,9.39
2023-04-12T05:48:10.180Z,9.36
2023-04-12T05:50:38.338Z,9.38
2023-04-12T05:53:06.382Z,9.34
2023-04-12T05:55:35.940Z,9.41
2023-04-12T05:58:05.554Z,9.48
2023-04-12T06:00:35.023Z,9.47
2023-04-12T06:03:03.963Z,9.41
2023-04-12T06:05:32.934Z,9.40
2023-04-12T06:08:02.288Z,9.40
2023-04-12T06:10:32.422Z,9.40
2023-04-12T06:13:00.347Z,9.37
2023-04-12T06:15:29.027Z,9.32
2023-04-12T06:17:58.624Z,9.34
2023-04-12T06:20:26.656Z,9.35
2023-04-12T06:22:54.693Z,9.28
2023-04-12T06:25:24.117Z,9.20
2023-04-12T06:27:52.072Z,9.31
2023-04-12T06:30:20.744Z,9.36
2023-04-12T06:32:48.822Z,9.37
2023-04-12T06:35:20.301Z,9.31
2023-04-12T06:37:48.422Z,9.28
2023-04-12T06:40:16.592Z,9.30
2023-04-12T06:42:44.591Z,9.36
2023-04-12T06:45:12.776Z,9.45
2023-04-12T06:47:40.783Z,9.47
2023-04-12T06:50:09.934Z,9.56
2023-04-12T06:52:39.265Z,9.62
2023-04-12T06:55:08.416Z,9.70
2023-04-12T06:57:36.436Z,9.62
2023-04-12T07:00:05.076Z,9.68
2023-04-12T07:02:33.533Z,9.82
2023-04-12T07:05:01.661Z,10.17
2023-04-12T07:07:29.623Z,11.17
2023-04-12T07:10:00.418Z,11.90
2023-04-12T07:12:28.434Z,11.53
2023-04-12T07:14:56.407Z,13.31
2023-04-12T07:17:27.239Z,13.53
2023-04-12T07:19:55.242Z,13.66
2023-04-12T07:22:23.442Z,13.73
2023-04-12T07:24:51.919Z,14.35
2023-04-12T07:27:21.286Z,13.83
2023-04-12T07:29:49.245Z,12.79
2023-04-12T07:32:17.191Z,12.64
2023-04-12T07:34:45.065Z,12.05
2023-04-12T07:37:13.172Z,12.19
2023-04-12T07:39:44.052Z,11.79
2023-04-12T07:42:12.088Z,11.47
2023-04-12T07:44:41.536Z,11.42
2023-04-12T07:47:09.608Z,11.43
2023-04-12T07:49:37.506Z,12.66
2023-04-12T07:52:05.908Z,14.10
2023-04-12T07:54:33.890Z,14.20
2023-04-12T07:57:03.718Z,13.01
2023-04-12T07:59:32.316Z,14.02
2023-04-12T08:02:02.108Z,13.90
2023-04-12T08:04:30.341Z,13.59
2023-04-12T08:06:58.332Z,12.77
2023-04-12T08:09:26.453Z,12.61
2023-04-12T08:11:54.425Z,12.29
2023-04-12T08:14:22.594Z,11.84
2023-04-12T08:16:50.609Z,11.73
2023-04-12T08:19:21.471Z,11.51
2023-04-12T08:21:49.397Z,11.65
2023-04-12T08:24:17.388Z,13.17
2023-04-12T08:26:45.882Z,14.42
2023-04-12T08:29:14.010Z,14.47
2023-04-12T08:31:42.162Z,14.51
2023-04-12T08:34:10.234Z,14.52
2023-04-12T08:36:41.088Z,14.84
2023-04-12T08:39:09.574Z,14.67
2023-04-12T08:41:39.945Z,14.49
2023-04-12T08:44:08.312Z,13.34
2023-04-12T08:46:37.750Z,12.91
2023-04-12T08:49:05.905Z,13.83
2023-04-12T08:51:36.336Z,14.23
2023-04-12T08:54:06.371Z,14.41
2023-04-12T08:56:34.606Z,15.59
2023-04-12T08:59:03.645Z,15.43
2023-04-12T09:01:31.615Z,15.43
2023-04-12T09:04:00.044Z,15.18
2023-04-12T09:06:28.338Z,15.65
2023-04-12T09:08:58.099Z,15.07
2023-04-12T09:11:28.912Z,15.23
2023-04-12T09:13:58.630Z,14.79
2023-04-12T09:16:37.518Z,15.37
2023-04-12T09:19:05.725Z,15.23
2023-04-12T09:21:34.904Z,15.35
2023-04-12T09:24:11.757Z,15.83
2023-04-12T09:26:43.002Z,16.04
2023-04-12T09:29:25.183Z,15.73
2023-04-12T09:31:58.046Z,15.62
2023-04-12T09:34:27.767Z,16.34
2023-04-12T09:36:56.135Z,15.92
2023-04-12T09:39:33.106Z,15.71
2023-04-12T09:42:25.034Z,16.00
2023-04-12T09:44:59.026Z,16.41
2023-04-12T09:47:39.399Z,16.44
2023-04-12T09:50:09.990Z,16.71
2023-04-12T09:52:39.501Z,16.90
2023-04-12T09:55:11.219Z,15.37
2023-04-12T09:57:43.205Z,14.50
2023-04-12T10:00:17.698Z,14.29
2023-04-12T10:02:47.844Z,15.35
2023-04-12T10:05:19.001Z,16.52
2023-04-12T10:07:48.115Z,15.65
2023-04-12T10:10:18.155Z,14.58
2023-04-12T10:12:49.478Z,16.16
2023-04-12T10:15:18.745Z,17.58
2023-04-12T10:17:48.324Z,17.34
2023-04-12T10:20:18.230Z,15.80
2023-04-12T10:22:48.913Z,14.32
2023-04-12T10:25:19.382Z,14.42
2023-04-12T10:27:49.883Z,15.20
2023-04-12T10:30:25.068Z,15.98
2023-04-12T10:33:14.809Z,17.23
2023-04-12T10:35:54.421Z,17.37
2023-04-12T10:38:25.046Z,17.30
2023-04-12T10:41:17.290Z,17.22
2023-04-12T10:43:48.285Z,17.94
2023-04-12T10:46:53.137Z,16.98
2023-04-12T10:49:21.510Z,16.86
2023-04-12T10:52:16.065Z,17.58
2023-04-12T10:54:44.318Z,17.92
2023-04-12T10:57:48.135Z,17.75
2023-04-12T11:00:18.386Z,17.34
2023-04-12T11:03:07.629Z,17.29
2023-04-12T11:05:57.680Z,17.07
2023-04-12T11:08:26.367Z,17.12
2023-04-12T11:11:00.273Z,17.33
2023-04-12T11:13:29.233Z,17.89
2023-04-12T11:16:02.556Z,17.57
2023-04-12T11:18:30.654Z,17.46
2023-04-12T11:20:59.606Z,18.35
2023-04-12T11:23:28.221Z,18.14
2023-04-12T11:26:14.951Z,17.62
2023-04-12T11:28:43.149Z,17.75
2023-04-12T11:31:12.615Z,18.19
2023-04-12T11:33:41.800Z,18.19
2023-04-12T11:36:13.240Z,17.39
2023-04-12T11:38:42.072Z,17.25
2023-04-12T11:41:11.635Z,17.35
2023-04-12T11:43:40.280Z,17.73
2023-04-12T11:46:08.906Z,17.57
2023-04-12T11:48:39.695Z,18.22
2023-04-12T11:51:20.836Z,18.04
2023-04-12T11:53:53.942Z,18.05
2023-04-12T11:56:22.271Z,18.66
2023-04-12T11:58:50.460Z,17.15
2023-04-12T12:01:20.132Z,16.66
2023-04-12T12:03:50.602Z,17.33
2023-04-12T12:06:20.759Z,17.68
2023-04-12T12:08:51.489Z,17.32
2023-04-12T12:11:21.820Z,16.47
2023-04-12T12:13:50.995Z,16.91
2023-04-12T12:16:19.924Z,16.91
2023-04-12T12:18:52.618Z,16.72
2023-04-12T12:21:22.283Z,17.26
2023-04-12T12:23:51.109Z,16.85
2023-04-12T12:26:24.862Z,16.68
2023-04-12T12:28:55.700Z,16.10
2023-04-12T12:31:26.746Z,16.10
2023-04-12T12:33:58.333Z,16.28
2023-04-12T12:36:33.659Z,16.80
2023-04-12T12:39:07.975Z,16.74
2023-04-12T12:41:36.725Z,16.89
2023-04-12T12:44:04.858Z,16.54
2023-04-12T12:46:50.823Z,16.37
2023-04-12T12:49:22.265Z,16.26
2023-04-12T12:51:52.097Z,15.88
2023-04-12T12:54:36.868Z,16.01
2023-04-12T12:57:08.168Z,15.61
2023-04-12T12:59:36.339Z,15.61
2023-04-12T13:02:05.525Z,15.76
2023-04-12T13:04:35.263Z,15.48
2023-04-12T13:07:03.307Z,15.63
2023-04-12T13:09:32.791Z,15.42
2023-04-12T13:12:02.017Z,15.33
2023-04-12T13:14:30.573Z,15.31
2023-04-12T13:16:58.649Z,15.21
2023-04-12T13:19:26.785Z,14.87
2023-04-12T13:21:57.305Z,14.96
2023-04-12T13:24:25.302Z,15.10
2023-04-12T13:26:53.321Z,14.97
2023-04-12T13:29:21.224Z,14.76
2023-04-12T13:31:49.388Z,14.88
2023-04-12T13:34:17.626Z,14.92
2023-04-12T13:36:46.082Z,15.08
2023-04-12T13:39:15.500Z,14.93
2023-04-12T13:41:43.512Z,14.85
2023-04-12T13:44:11.777Z,14.82
2023-04-12T13:46:39.834Z,14.59
2023-04-12T13:49:07.951Z,14.63
2023-04-12T13:51:36.059Z,14.67
2023-04-12T13:54:04.233Z,14.71
2023-04-12T13:56:33.659Z,14.53
2023-04-12T13:59:02.513Z,14.45
2023-04-12T14:01:30.740Z,14.07
2023-04-12T14:03:58.695Z,14.48
2023-04-12T14:06:27.225Z,14.79
2023-04-12T14:08:55.162Z,14.64
2023-04-12T14:11:24.996Z,13.28
2023-04-12T14:13:54.669Z,14.58
2023-04-12T14:16:22.607Z,14.43
2023-04-12T14:18:50.682Z,13.96
2023-04-12T14:21:18.862Z,14.49
2023-04-12T14:23:47.087Z,14.55
2023-04-12T14:26:20.389Z,14.26
2023-04-12T14:28:50.163Z,14.30
2023-04-12T14:31:22.500Z,14.48
2023-04-12T14:33:50.489Z,14.57
2023-04-12T14:36:21.437Z,14.39
2023-04-12T14:38:49.672Z,14.51
2023-04-12T14:41:19.877Z,14.47
2023-04-12T14:43:47.961Z,14.20
2023-04-12T14:46:19.257Z,13.94
2023-04-12T14:48:47.403Z,14.15
2023-04-12T14:51:15.329Z,14.19
2023-04-12T14:53:43.691Z,14.32
2023-04-12T14:56:20.407Z,14.31
2023-04-12T14:58:50.585Z,14.05
2023-04-12T15:01:20.015Z,14.00
2023-04-12T15:03:48.273Z,14.04
2023-04-12T15:06:16.458Z,13.97
2023-04-12T15:08:44.678Z,13.95
2023-04-12T15:11:13.598Z,13.86
2023-04-12T15:13:44.397Z,13.65
2023-04-12T15:16:14.345Z,13.73
2023-04-12T15:18:43.734Z,13.80
2023-04-12T15:21:12.948Z,13.89
2023-04-12T15:23:42.083Z,13.88
2023-04-12T15:26:10.730Z,13.77
2023-04-12T15:28:39.085Z,13.78
2023-04-12T15:31:08.147Z,13.64
2023-04-12T15:33:37.570Z,13.64
2023-04-12T15:36:07.460Z,13.68
2023-04-12T15:38:41.959Z,13.62
2023-04-12T15:41:10.757Z,13.45
2023-04-12T15:43:38.790Z,13.49
2023-04-12T15:46:07.494Z,13.40
2023-04-12T15:48:39.051Z,13.32
2023-04-12T15:51:08.686Z,13.34
2023-04-12T15:53:37.205Z,13.28
2023-04-12T15:56:05.656Z,13.31
2023-04-12T15:58:33.648Z,12.24
2023-04-12T16:01:01.817Z,13.35
2023-04-12T16:03:30.293Z,13.01
2023-04-12T16:05:58.285Z,13.29
2023-04-12T16:08:28.342Z,13.23
2023-04-12T16:10:56.370Z,12.97
2023-04-12T16:13:24.329Z,13.06
2023-04-12T16:15:52.792Z,12.97
2023-04-12T16:18:20.779Z,12.77
2023-04-12T16:20:53.106Z,12.86
2023-04-12T16:23:21.343Z,12.83
2023-04-12T16:25:53.124Z,12.54
2023-04-12T16:28:22.688Z,12.77
2023-04-12T16:30:50.885Z,12.73
2023-04-12T16:33:19.481Z,12.64
2023-04-12T16:35:47.456Z,12.61
2023-04-12T16:38:17.662Z,12.54
2023-04-12T16:40:45.802Z,12.57
2023-04-12T16:43:15.117Z,12.45
2023-04-12T16:45:45.739Z,12.46
2023-04-12T16:48:15.220Z,12.40
2023-04-12T16:50:45.002Z,12.34
2023-04-12T16:53:13.047Z,11.91
2023-04-12T16:55:43.472Z,12.23
2023-04-12T16:58:14.344Z,11.75
2023-04-12T17:00:44.194Z,12.13
2023-04-12T17:03:13.127Z,12.07
2023-04-12T17:05:41.409Z,12.01
2023-04-12T17:08:09.972Z,11.93
2023-04-12T17:10:38.490Z,11.94
2023-04-12T17:13:06.748Z,11.90
2023-04-12T17:15:34.815Z,11.89
2023-04-12T17:18:05.724Z,11.77
2023-04-12T17:20:34.584Z,10.84
2023-04-12T17:23:03.304Z,11.68
2023-04-12T17:25:32.300Z,11.62
2023-04-12T17:28:01.233Z,11.56
2023-04-12T17:30:29.933Z,11.51
2023-04-12T17:33:01.486Z,11.44
2023-04-12T17:35:31.339Z,11.41
2023-04-12T17:37:59.272Z,11.36
2023-04-12T17:40:27.271Z,11.32
2023-04-12T17:42:55.539Z,11.27
2023-04-12T17:45:24.127Z,11.25
2023-04-12T17:47:52.184Z,11.15
2023-04-12T17:50:20.176Z,11.16
2023-04-12T17:52:50.134Z,11.07
2023-04-12T17:55:23.567Z,11.10
2023-04-12T17:57:51.573Z,11.06
2023-04-12T18:00:20.774Z,10.87
2023-04-12T18:02:50.194Z,10.97
2023-04-12T18:05:20.804Z,10.92
2023-04-12T18:07:50.226Z,10.91
2023-04-12T18:10:21.406Z,10.50
2023-04-12T18:12:50.408Z,10.85
2023-04-12T18:15:19.074Z,10.80
2023-04-12T18:17:47.320Z,10.78
2023-04-12T18:20:16.509Z,10.74
2023-04-12T18:22:45.932Z,10.70
2023-04-12T18:25:16.740Z,10.62
2023-04-12T18:27:47.738Z,10.64
2023-04-12T18:30:17.366Z,10.60
2023-04-12T18:32:45.800Z,10.47
2023-04-12T18:35:13.945Z,10.46
2023-04-12T18:37:42.636Z,10.44
2023-04-12T18:40:11.814Z,10.42
2023-04-12T18:42:41.357Z,10.37
2023-04-12T18:45:10.377Z,10.33
2023-04-12T18:47:39.107Z,10.31
2023-04-12T18:50:08.625Z,10.19
2023-04-12T18:52:37.952Z,10.21
2023-04-12T18:55:07.238Z,10.20
2023-04-12T18:57:35.456Z,10.20
2023-04-12T19:00:10.497Z,10.15
2023-04-12T19:02:38.601Z,10.15
2023-04-12T19:05:06.852Z,10.21
2023-04-12T19:07:34.749Z,10.14
2023-04-12T19:10:02.764Z,10.20
2023-04-12T19:12:30.934Z,10.13
2023-04-12T19:14:58.906Z,10.13
2023-04-12T19:17:29.415Z,10.09
2023-04-12T19:19:58.671Z,10.13
2023-04-12T19:22:28.621Z,10.17
2023-04-12T19:24:56.862Z,10.13
2023-04-12T19:27:25.216Z,10.09
2023-04-12T19:29:53.597Z,10.06
2023-04-12T19:32:22.157Z,10.03
2023-04-12T19:34:51.877Z,10.04
2023-04-12T19:37:19.851Z,10.01
2023-04-12T19:39:48.625Z,10.01
2023-04-12T19:42:17.737Z,9.58
2023-04-12T19:44:46.476Z,9.98
2023-04-12T19:47:15.530Z,9.94
2023-04-12T19:49:43.765Z,9.89
2023-04-12T19:52:15.421Z,9.82
2023-04-12T19:54:43.313Z,9.78
2023-04-12T19:57:11.768Z,9.75
2023-04-12T19:59:39.890Z,9.72
2023-04-12T20:02:08.551Z,9.73
2023-04-12T20:04:38.321Z,9.53
2023-04-12T20:07:06.722Z,9.67
2023-04-12T20:09:36.078Z,9.66
2023-04-12T20:12:04.122Z,9.65
2023-04-12T20:14:35.378Z,9.62
2023-04-12T20:17:06.164Z,9.54
2023-04-12T20:19:34.580Z,9.62
2023-04-12T20:22:03.479Z,9.48
2023-04-12T20:24:34.453Z,9.21
2023-04-12T20:27:03.928Z,9.50
2023-04-12T20:29:33.427Z,9.41
2023-04-12T20:32:02.321Z,9.37
2023-04-12T20:34:30.301Z,9.10
2023-04-12T20:36:59.976Z,9.32
2023-04-12T20:39:29.645Z,9.25
2023-04-12T20:42:01.120Z,9.26
2023-04-12T20:44:30.710Z,9.24
2023-04-12T20:46:59.042Z,9.23
2023-04-12T20:49:27.886Z,9.21
2023-04-12T20:51:57.355Z,9.22
2023-04-12T20:54:25.483Z,9.19
2023-04-12T20:56:54.327Z,9.18
2023-04-12T20:59:23.056Z,9.13
2023-04-12T21:04:41.250Z,9.10
2023-04-12T21:07:09.356Z,9.05
2023-04-12T21:09:37.666Z,9.07
2023-04-12T21:12:07.342Z,9.05
2023-04-12T21:14:35.626Z,9.02
2023-04-12T21:17:07.193Z,8.97
2023-04-12T21:19:39.076Z,8.98
2023-04-12T21:22:08.372Z,8.97
2023-04-12T21:24:38.974Z,8.91
2023-04-12T21:27:08.462Z,8.88
2023-04-12T21:29:41.388Z,8.85
2023-04-12T21:32:11.297Z,8.52
2023-04-12T21:34:39.273Z,8.81
2023-04-12T21:37:07.761Z,8.51
2023-04-12T21:39:35.793Z,8.75
2023-04-12T21:42:03.707Z,8.79
2023-04-12T21:44:32.260Z,8.70
2023-04-12T21:47:00.230Z,8.71
2023-04-12T21:49:31.224Z,8.73
2023-04-12T21:51:59.452Z,8.44
2023-04-12T21:54:28.938Z,8.74
2023-04-12T21:56:57.442Z,8.70
2023-04-12T21:59:26.631Z,8.63
2023-04-12T22:01:54.707Z,8.37
2023-04-12T22:04:22.687Z,8.05
2023-04-12T22:06:52.632Z,7.55
2023-04-12T22:09:20.603Z,7.45
2023-04-12T22:11:49.140Z,7.24
2023-04-12T22:14:17.088Z,7.05
2023-04-12T22:16:45.294Z,6.80
2023-04-12T22:19:13.546Z,6.80
2023-04-12T22:21:41.569Z,6.82
2023-04-12T22:24:10.943Z,6.69
2023-04-12T22:26:38.952Z,6.47
2023-04-12T22:29:07.198Z,5.73
2023-04-12T22:31:35.604Z,5.89
2023-04-12T22:34:04.622Z,5.94
2023-04-12T22:36:37.170Z,4.93
2023-04-12T22:39:05.353Z,5.79
2023-04-12T22:41:34.676Z,5.89
2023-04-12T22:44:03.040Z,5.87
2023-04-12T22:46:32.466Z,5.82
2023-04-12T22:49:01.629Z,5.88
2023-04-12T22:51:29.569Z,5.71
2023-04-12T22:53:58.195Z,5.58
2023-04-12T22:56:27.095Z,5.50
2023-04-12T22:58:57.322Z,4.95
2023-04-12T23:01:25.356Z,5.39
2023-04-12T23:03:54.200Z,5.35
2023-04-12T23:06:22.120Z,5.35
2023-04-12T23:08:50.022Z,4.85
2023-04-12T23:11:18.060Z,5.42
2023-04-12T23:13:46.075Z,5.50
2023-04-12T23:16:16.250Z,5.41
2023-04-12T23:18:45.128Z,5.46
2023-04-12T23:21:13.318Z,5.54
2023-04-12T23:23:41.582Z,5.67
2023-04-12T23:26:10.823Z,5.78
2023-04-12T23:28:40.372Z,5.53
2023-04-12T23:31:08.885Z,5.62
2023-04-12T23:33:43.004Z,5.67
2023-04-12T23:36:11.814Z,5.70
2023-04-12T23:38:40.755Z,5.43
2023-04-12T23:41:11.538Z,5.47
2023-04-12T23:43:39.545Z,5.18
2023-04-12T23:46:08.350Z,5.28
2023-04-12T23:48:36.787Z,5.54
2023-04-12T23:51:06.921Z,5.47
2023-04-12T23:53:34.925Z,5.45
2023-04-12T23:56:02.954Z,5.47
2023-04-12T23:58:31.065Z,5.48
